createdAt,value
2022-08-07T00:01:43.105Z,6.53
2022-08-07T00:03:51.066Z,6.70
2022-08-07T00:06:17.729Z,6.63
2022-08-07T00:08:47.081Z,6.13
2022-08-07T00:11:13.758Z,6.40
2022-08-07T00:13:47.900Z,5.82
2022-08-07T00:16:17.471Z,5.90
2022-08-07T00:18:48.426Z,6.05
2022-08-07T00:21:56.167Z,6.50
2022-08-07T00:24:01.707Z,5.82
2022-08-07T00:26:49.114Z,6.57
2022-08-07T00:31:42.366Z,7.55
2022-08-07T00:34:09.496Z,6.28
2022-08-07T00:36:38.505Z,5.45
2022-08-07T00:39:05.795Z,6.00
2022-08-07T00:41:33.780Z,5.47
2022-08-07T00:44:11.834Z,5.88
2022-08-07T00:46:41.650Z,5.85
2022-08-07T00:49:10.377Z,6.03
2022-08-07T00:51:58.300Z,5.80
2022-08-07T00:54:25.430Z,6.10
2022-08-07T00:56:52.486Z,5.53
2022-08-07T00:59:35.949Z,5.35
2022-08-07T01:02:09.053Z,8.18
2022-08-07T01:04:53.619Z,6.80
2022-08-07T01:07:27.519Z,7.38
2022-08-07T01:10:04.905Z,4.95
2022-08-07T01:12:34.484Z,5.10
2022-08-07T01:15:04.059Z,5.25
2022-08-07T01:17:31.926Z,5.10
2022-08-07T01:20:10.691Z,4.40
2022-08-07T01:22:46.702Z,5.30
2022-08-07T01:25:53.668Z,4.70
2022-08-07T01:28:08.423Z,4.80
2022-08-07T01:30:39.263Z,4.95
2022-08-07T01:33:08.802Z,5.43
2022-08-07T01:35:53.536Z,4.85
2022-08-07T01:38:25.719Z,5.78
2022-08-07T01:40:55.546Z,6.50
2022-08-07T01:43:23.705Z,5.53
2022-08-07T01:45:54.760Z,5.50
2022-08-07T01:48:29.570Z,6.55
2022-08-07T01:51:24.673Z,5.90
2022-08-07T01:54:11.977Z,6.53
2022-08-07T01:56:53.310Z,7.13
2022-08-07T01:59:30.828Z,6.88
2022-08-07T02:02:10.495Z,7.32
2022-08-07T02:04:55.637Z,6.38
2022-08-07T02:07:44.969Z,6.40
2022-08-07T02:10:14.404Z,6.43
2022-08-07T02:12:43.462Z,5.97
2022-08-07T02:15:14.569Z,7.60
2022-08-07T02:17:49.555Z,6.63
2022-08-07T02:20:23.507Z,6.25
2022-08-07T02:22:54.829Z,6.63
2022-08-07T02:26:11.399Z,7.55
2022-08-07T02:28:12.682Z,9.07
2022-08-07T02:30:40.612Z,6.50
2022-08-07T02:33:10.430Z,9.00
2022-08-07T02:36:30.526Z,6.95
2022-08-07T02:38:32.595Z,7.15
2022-08-07T02:41:00.793Z,8.10
2022-08-07T02:43:31.200Z,8.35
2022-08-07T02:46:02.092Z,7.32
2022-08-07T02:48:30.512Z,8.43
2022-08-07T02:51:03.311Z,6.43
2022-08-07T02:53:38.517Z,5.93
2022-08-07T02:56:17.406Z,5.95
2022-08-07T02:58:47.395Z,7.28
2022-08-07T03:01:19.026Z,7.13
2022-08-07T03:04:03.338Z,7.50
2022-08-07T03:06:35.473Z,6.72
2022-08-07T03:09:04.136Z,7.85
2022-08-07T03:11:38.714Z,7.25
2022-08-07T03:14:06.647Z,7.55
2022-08-07T03:16:34.751Z,9.13
2022-08-07T03:19:01.843Z,7.65
2022-08-07T03:21:32.886Z,7.28
2022-08-07T03:24:19.560Z,7.13
2022-08-07T03:26:58.261Z,7.40
2022-08-07T03:29:28.309Z,7.97
2022-08-07T03:31:56.684Z,9.15
2022-08-07T03:34:27.317Z,9.30
2022-08-07T03:36:57.335Z,8.40
2022-08-07T03:39:46.393Z,9.75
2022-08-07T03:42:15.942Z,8.65
2022-08-07T03:44:47.346Z,7.93
2022-08-07T03:47:20.590Z,7.85
2022-08-07T03:49:52.383Z,8.52
2022-08-07T03:52:26.406Z,9.55
2022-08-07T03:54:58.950Z,8.63
2022-08-07T03:58:34.821Z,8.60
2022-08-07T04:00:21.276Z,7.95
2022-08-07T04:02:57.013Z,8.65
2022-08-07T04:05:24.175Z,9.85
2022-08-07T04:08:06.826Z,9.60
2022-08-07T04:10:33.884Z,8.48
2022-08-07T04:13:07.631Z,8.93
2022-08-07T04:15:43.355Z,8.88
2022-08-07T04:18:56.544Z,9.45
2022-08-07T04:21:01.277Z,9.80
2022-08-07T04:23:43.984Z,9.85
2022-08-07T04:26:16.880Z,10.00
2022-08-07T04:28:48.322Z,8.52
2022-08-07T04:31:19.773Z,5.70
2022-08-07T04:33:47.362Z,6.43
2022-08-07T04:36:22.752Z,7.72
2022-08-07T04:38:52.681Z,5.20
2022-08-07T04:41:19.611Z,6.03
2022-08-07T04:44:13.002Z,5.72
2022-08-07T04:46:59.318Z,6.65
2022-08-07T04:50:04.022Z,5.95
2022-08-07T04:52:51.381Z,6.20
2022-08-07T04:58:07.910Z,6.75
2022-08-07T04:58:48.829Z,7.03
2022-08-07T05:01:30.231Z,6.80
2022-08-07T05:04:33.883Z,7.93
2022-08-07T05:07:21.110Z,6.93
2022-08-07T05:10:13.825Z,7.32
2022-08-07T05:12:53.765Z,6.45
2022-08-07T05:15:31.265Z,6.00
2022-08-07T05:18:01.638Z,7.95
2022-08-07T05:20:43.734Z,9.02
2022-08-07T05:23:16.879Z,7.30
2022-08-07T05:26:11.187Z,8.20
2022-08-07T05:28:33.832Z,8.85
2022-08-07T05:31:03.680Z,8.82
2022-08-07T05:33:35.620Z,7.10
2022-08-07T05:36:07.056Z,11.57
2022-08-07T05:39:00.520Z,10.73
2022-08-07T05:42:00.328Z,11.80
2022-08-07T05:44:15.316Z,12.98
2022-08-07T05:46:42.853Z,10.95
2022-08-07T05:49:12.651Z,10.15
2022-08-07T05:51:42.517Z,11.52
2022-08-07T05:54:30.086Z,11.23
2022-08-07T05:56:57.959Z,11.10
2022-08-07T05:59:27.445Z,15.35
2022-08-07T06:01:57.421Z,11.55
2022-08-07T06:04:29.966Z,13.20
2022-08-07T06:07:03.630Z,10.95
2022-08-07T06:10:04.421Z,13.93
2022-08-07T06:12:18.540Z,10.27
2022-08-07T06:14:49.637Z,12.85
2022-08-07T06:17:19.221Z,11.55
2022-08-07T06:20:03.275Z,8.52
2022-08-07T06:22:36.886Z,11.50
2022-08-07T06:25:06.489Z,10.57
2022-08-07T06:27:59.819Z,10.60
2022-08-07T06:30:35.471Z,11.05
2022-08-07T06:33:05.616Z,11.35
2022-08-07T06:35:47.662Z,12.05
2022-08-07T06:41:00.418Z,12.02
2022-08-07T06:43:39.127Z,10.55
2022-08-07T06:46:06.639Z,11.30
2022-08-07T06:48:42.081Z,11.63
2022-08-07T06:51:31.279Z,10.50
2022-08-07T06:55:28.553Z,10.98
2022-08-07T07:00:12.716Z,11.30
2022-08-07T07:02:48.345Z,10.95
2022-08-07T07:05:05.792Z,11.13
2022-08-07T07:07:59.472Z,10.95
2022-08-07T07:10:31.253Z,10.48
2022-08-07T07:13:06.348Z,12.45
2022-08-07T07:15:43.269Z,9.20
2022-08-07T07:18:47.119Z,11.20
2022-08-07T07:21:27.050Z,9.00
2022-08-07T07:24:12.645Z,10.07
2022-08-07T07:26:51.855Z,9.80
2022-08-07T07:29:56.128Z,7.93
2022-08-07T07:32:14.353Z,8.82
2022-08-07T07:34:46.653Z,11.45
2022-08-07T07:40:10.296Z,6.88
2022-08-07T07:42:43.974Z,6.82
2022-08-07T07:45:19.412Z,7.30
2022-08-07T07:47:53.305Z,5.82
2022-08-07T07:50:35.273Z,6.82
2022-08-07T07:53:20.437Z,6.40
2022-08-07T07:56:00.661Z,6.00
2022-08-07T07:58:37.072Z,7.07
2022-08-07T08:02:01.528Z,6.93
2022-08-07T08:04:10.467Z,7.63
2022-08-07T08:06:40.783Z,7.18
2022-08-07T08:09:22.700Z,6.78
2022-08-07T08:12:01.854Z,6.93
2022-08-07T08:14:36.253Z,8.02
2022-08-07T08:17:56.338Z,7.07
2022-08-07T08:20:17.734Z,6.75
2022-08-07T08:23:10.325Z,6.63
2022-08-07T08:26:03.333Z,8.65
2022-08-07T08:28:38.225Z,6.57
2022-08-07T08:31:14.877Z,7.03
2022-08-07T08:33:49.786Z,16.27
2022-08-07T08:36:30.035Z,6.38
2022-08-07T08:39:02.184Z,6.00
2022-08-07T08:41:57.804Z,6.28
2022-08-07T08:44:44.556Z,6.07
2022-08-07T08:47:51.868Z,5.47
2022-08-07T08:50:40.087Z,4.88
2022-08-07T08:53:19.273Z,4.88
2022-08-07T08:55:59.491Z,6.13
2022-08-07T09:01:15.949Z,6.15
2022-08-07T09:04:25.889Z,5.45
2022-08-07T09:07:01.357Z,5.53
2022-08-07T09:09:57.043Z,6.35
2022-08-07T09:12:53.618Z,5.28
2022-08-07T09:16:21.617Z,5.90
2022-08-07T09:18:58.927Z,5.22
2022-08-07T09:21:34.509Z,4.97
2022-08-07T09:24:58.619Z,5.05
2022-08-07T09:27:31.184Z,7.63
2022-08-07T09:30:10.522Z,6.25
2022-08-07T09:33:24.200Z,5.10
2022-08-07T09:36:16.109Z,4.68
2022-08-07T09:38:54.147Z,5.45
2022-08-07T09:41:58.940Z,5.68
2022-08-07T09:44:52.209Z,4.57
2022-08-07T09:47:58.297Z,4.70
2022-08-07T09:50:31.593Z,4.90
2022-08-07T09:53:02.052Z,5.53
2022-08-07T09:56:03.988Z,4.60
2022-08-07T09:58:56.375Z,4.88
2022-08-07T10:01:54.350Z,6.13
2022-08-07T10:05:12.723Z,5.53
2022-08-07T10:07:52.673Z,4.72
2022-08-07T10:11:16.839Z,5.43
2022-08-07T10:14:01.640Z,5.13
2022-08-07T10:17:14.073Z,4.47
2022-08-07T10:19:55.232Z,4.45
2022-08-07T10:22:37.504Z,5.05
2022-08-07T10:25:42.481Z,3.80
2022-08-07T10:28:30.893Z,4.43
2022-08-07T10:31:38.729Z,4.30
2022-08-07T10:34:15.798Z,3.80
2022-08-07T10:36:51.201Z,4.82
2022-08-07T10:40:03.509Z,4.03
2022-08-07T10:42:50.075Z,4.82
2022-08-07T10:45:58.160Z,5.18
2022-08-07T10:48:39.231Z,4.97
2022-08-07T10:51:16.777Z,3.30
2022-08-07T10:54:12.353Z,4.35
2022-08-07T10:57:12.921Z,3.42
2022-08-07T10:59:54.494Z,4.15
2022-08-07T11:02:33.116Z,4.32
2022-08-07T11:05:49.005Z,4.65
2022-08-07T11:08:45.734Z,4.82
2022-08-07T11:11:40.210Z,4.43
2022-08-07T11:14:45.607Z,4.00
2022-08-07T11:17:43.274Z,4.18
2022-08-07T11:20:24.629Z,3.30
2022-08-07T11:23:36.347Z,4.22
2022-08-07T11:26:24.244Z,3.78
2022-08-07T11:29:13.169Z,3.80
2022-08-07T11:32:09.554Z,3.47
2022-08-07T11:34:59.721Z,3.58
2022-08-07T11:38:12.537Z,6.43
2022-08-07T11:41:00.548Z,4.40
2022-08-07T11:44:28.238Z,4.30
2022-08-07T11:47:06.756Z,3.85
2022-08-07T11:50:30.723Z,3.88
2022-08-07T11:53:33.773Z,3.75
2022-08-07T11:56:28.135Z,3.83
2022-08-07T12:00:12.090Z,3.60
2022-08-07T12:02:36.724Z,3.45
2022-08-07T12:05:47.726Z,4.00
2022-08-07T12:08:40.340Z,7.47
2022-08-07T12:11:32.447Z,3.83
2022-08-07T12:14:21.933Z,4.53
2022-08-07T12:16:58.183Z,4.47
2022-08-07T12:20:02.838Z,4.63
2022-08-07T12:22:56.412Z,4.70
2022-08-07T12:26:02.869Z,3.60
2022-08-07T12:28:49.737Z,3.70
2022-08-07T12:31:52.553Z,4.10
2022-08-07T12:34:25.888Z,7.00
2022-08-07T12:36:55.640Z,3.70
2022-08-07T12:39:42.374Z,4.93
2022-08-07T12:42:15.945Z,4.13
2022-08-07T12:44:48.881Z,5.32
2022-08-07T12:47:37.854Z,4.13
2022-08-07T12:50:33.835Z,4.35
2022-08-07T12:53:25.451Z,3.85
2022-08-07T12:56:10.140Z,4.25
2022-08-07T12:58:42.967Z,5.55
2022-08-07T13:04:04.698Z,4.47
2022-08-07T13:07:00.407Z,4.40
2022-08-07T13:10:19.806Z,3.72
2022-08-07T13:13:08.407Z,4.50
2022-08-07T13:15:51.919Z,5.05
2022-08-07T13:18:29.897Z,4.90
2022-08-07T13:21:11.140Z,3.70
2022-08-07T13:24:01.364Z,4.63
2022-08-07T13:26:39.368Z,4.55
2022-08-07T13:29:34.864Z,5.85
2022-08-07T13:32:32.836Z,4.13
2022-08-07T13:35:15.914Z,4.50
2022-08-07T13:37:59.044Z,4.88
2022-08-07T13:40:42.254Z,7.63
2022-08-07T13:43:12.829Z,4.80
2022-08-07T13:46:11.534Z,4.60
2022-08-07T13:48:38.640Z,5.65
2022-08-07T13:51:26.925Z,4.47
2022-08-07T13:54:03.314Z,5.03
2022-08-07T13:56:35.419Z,4.45
2022-08-07T13:59:13.537Z,4.57
2022-08-07T14:02:03.683Z,3.92
2022-08-07T14:04:35.698Z,4.07
2022-08-07T14:07:09.658Z,3.58
2022-08-07T14:10:02.605Z,4.43
2022-08-07T14:12:41.569Z,3.90
2022-08-07T14:15:18.832Z,3.28
2022-08-07T14:18:23.970Z,3.85
2022-08-07T14:20:48.871Z,3.50
2022-08-07T14:24:01.272Z,4.05
2022-08-07T14:26:30.622Z,3.38
2022-08-07T14:29:10.399Z,3.53
2022-08-07T14:31:56.642Z,3.80
2022-08-07T14:36:59.429Z,4.45
2022-08-07T14:40:16.377Z,4.00
2022-08-07T14:42:32.430Z,3.58
2022-08-07T14:50:52.044Z,4.93
2022-08-07T14:54:03.801Z,5.88
2022-08-07T14:56:13.078Z,7.70
2022-08-07T14:58:51.175Z,3.33
2022-08-07T15:04:18.080Z,3.80
2022-08-07T15:06:49.696Z,3.78
2022-08-07T15:09:57.559Z,4.20
2022-08-07T15:12:09.995Z,4.13
2022-08-07T15:15:07.576Z,4.18
2022-08-07T15:17:55.531Z,4.70
2022-08-07T15:20:32.903Z,5.00
2022-08-07T15:23:20.223Z,5.75
2022-08-07T15:25:55.383Z,4.05
2022-08-07T15:28:34.985Z,4.97
2022-08-07T15:31:12.912Z,3.85
2022-08-07T15:34:04.731Z,5.18
2022-08-07T15:37:02.896Z,4.88
2022-08-07T15:39:27.291Z,4.05
2022-08-07T15:42:44.296Z,4.40
2022-08-07T15:45:57.491Z,3.97
2022-08-07T15:48:33.419Z,4.25
2022-08-07T15:51:09.451Z,4.38
2022-08-07T15:53:52.636Z,6.13
2022-08-07T15:56:28.996Z,6.15
2022-08-07T16:01:39.018Z,5.07
2022-08-07T16:04:15.581Z,4.93
2022-08-07T16:06:59.322Z,5.43
2022-08-07T16:09:42.316Z,5.78
2022-08-07T16:12:31.379Z,5.30
2022-08-07T16:15:18.150Z,6.65
2022-08-07T16:18:50.418Z,4.53
2022-08-07T16:22:01.801Z,4.22
2022-08-07T16:24:34.434Z,4.93
2022-08-07T16:27:18.259Z,5.55
2022-08-07T16:30:30.781Z,7.57
2022-08-07T16:34:01.994Z,4.70
2022-08-07T16:36:19.905Z,5.30
2022-08-07T16:39:01.924Z,5.35
2022-08-07T16:41:48.485Z,8.07
2022-08-07T16:45:15.189Z,5.43
2022-08-07T16:48:30.040Z,5.55
2022-08-07T16:51:54.470Z,7.10
2022-08-07T16:54:21.075Z,6.47
2022-08-07T16:57:05.666Z,4.55
2022-08-07T17:00:01.638Z,7.88
2022-08-07T17:06:18.944Z,5.22
2022-08-07T17:09:10.718Z,7.20
2022-08-07T17:12:05.332Z,5.65
2022-08-07T17:15:16.526Z,8.52
2022-08-07T17:17:49.077Z,4.75
2022-08-07T17:20:41.808Z,5.00
2022-08-07T17:23:20.707Z,4.38
2022-08-07T17:26:03.510Z,4.97
2022-08-07T17:28:49.909Z,4.70
2022-08-07T17:31:44.211Z,5.00
2022-08-07T17:35:02.729Z,5.07
2022-08-07T17:38:05.959Z,6.93
2022-08-07T17:42:02.374Z,6.95
2022-08-07T17:44:01.707Z,7.03
2022-08-07T17:46:58.426Z,4.90
2022-08-07T17:49:24.922Z,5.22
2022-08-07T17:52:21.941Z,5.07
2022-08-07T17:55:16.484Z,6.45
2022-08-07T18:00:59.566Z,5.85
2022-08-07T18:04:04.326Z,7.75
2022-08-07T18:06:36.841Z,5.40
2022-08-07T18:12:17.337Z,5.35
2022-08-07T18:15:09.933Z,5.25
2022-08-07T18:19:02.593Z,6.55
2022-08-07T18:21:04.199Z,6.32
2022-08-07T18:23:57.520Z,5.50
2022-08-07T18:26:44.581Z,5.35
2022-08-07T18:30:07.453Z,5.43
2022-08-07T18:32:24.606Z,5.18
2022-08-07T18:35:28.213Z,5.93
2022-08-07T18:38:55.627Z,6.75
2022-08-07T18:41:20.756Z,7.20
2022-08-07T18:43:58.212Z,5.00
2022-08-07T18:46:42.978Z,5.30
2022-08-07T18:50:31.466Z,5.65
2022-08-07T18:52:53.557Z,6.93
2022-08-07T18:55:41.029Z,6.57
2022-08-07T18:58:31.924Z,5.43
2022-08-07T19:02:16.041Z,6.50
2022-08-07T19:04:13.934Z,6.80
2022-08-07T19:06:53.199Z,6.30
2022-08-07T19:09:56.609Z,7.20
2022-08-07T19:12:53.429Z,8.45
2022-08-07T19:16:04.411Z,8.45
2022-08-07T19:19:00.276Z,6.90
2022-08-07T19:22:04.845Z,6.72
2022-08-07T19:24:44.452Z,5.47
2022-08-07T19:28:30.610Z,6.45
2022-08-07T19:31:05.119Z,8.07
2022-08-07T19:33:13.139Z,7.07
2022-08-07T19:35:42.167Z,7.70
2022-08-07T19:38:17.013Z,5.85
2022-08-07T19:40:49.661Z,5.55
2022-08-07T19:43:48.816Z,7.05
2022-08-07T19:46:14.673Z,8.10
2022-08-07T19:48:54.016Z,7.00
2022-08-07T19:51:51.202Z,6.22
2022-08-07T19:54:32.757Z,7.00
2022-08-07T19:58:00.427Z,8.98
2022-08-07T19:59:56.391Z,5.90
2022-08-07T20:05:25.391Z,7.68
2022-08-07T20:07:59.433Z,7.32
2022-08-07T20:10:36.538Z,7.25
2022-08-07T20:13:32.165Z,9.27
2022-08-07T20:16:02.559Z,7.15
2022-08-07T20:18:32.289Z,9.15
2022-08-07T20:21:02.179Z,9.68
2022-08-07T20:23:41.056Z,7.13
2022-08-07T20:26:15.326Z,7.53
2022-08-07T20:31:46.490Z,6.28
2022-08-07T20:34:15.097Z,7.15
2022-08-07T20:36:44.069Z,8.68
2022-08-07T20:40:01.377Z,10.68
2022-08-07T20:42:14.553Z,7.15
2022-08-07T20:44:49.324Z,7.05
2022-08-07T20:47:25.141Z,6.72
2022-08-07T20:49:58.116Z,8.98
2022-08-07T20:52:50.717Z,11.05
2022-08-07T20:55:23.717Z,9.23
2022-08-07T20:58:11.944Z,9.23
2022-08-07T21:00:51.337Z,8.32
2022-08-07T21:03:23.293Z,10.30
2022-08-07T21:06:03.675Z,11.45
2022-08-07T21:09:15.015Z,8.90
2022-08-07T21:11:51.050Z,10.05
2022-08-07T21:14:33.213Z,9.90
2022-08-07T21:18:02.603Z,8.43
2022-08-07T21:20:04.857Z,12.60
2022-08-07T21:22:39.218Z,11.45
2022-08-07T21:25:22.654Z,12.60
2022-08-07T21:28:16.777Z,12.63
2022-08-07T21:33:52.169Z,11.20
2022-08-07T21:36:40.134Z,9.93
2022-08-07T21:39:46.853Z,13.57
2022-08-07T21:42:42.829Z,9.82
2022-08-07T21:46:08.152Z,10.77
2022-08-07T21:48:26.839Z,11.45
2022-08-07T21:51:25.013Z,10.65
2022-08-07T21:53:55.079Z,11.35
2022-08-07T21:56:36.447Z,11.25
2022-08-07T21:59:21.395Z,11.13
2022-08-07T22:02:10.545Z,10.20
2022-08-07T22:04:53.480Z,11.95
2022-08-07T22:07:31.438Z,15.90
2022-08-07T22:10:06.019Z,11.30
2022-08-07T22:12:59.347Z,13.80
2022-08-07T22:16:43.567Z,11.00
2022-08-07T22:18:49.663Z,13.70
2022-08-07T22:22:02.275Z,13.30
2022-08-07T22:24:17.775Z,12.05
2022-08-07T22:26:59.294Z,12.65
2022-08-07T22:29:47.510Z,12.88
2022-08-07T22:32:54.880Z,12.18
2022-08-07T22:35:23.483Z,11.85
2022-08-07T22:38:33.744Z,12.02
2022-08-07T22:41:07.594Z,12.15
2022-08-07T22:43:56.037Z,11.63
2022-08-07T22:47:03.563Z,12.15
2022-08-07T22:49:54.328Z,12.55
2022-08-07T22:52:43.450Z,12.10
2022-08-07T22:55:30.714Z,11.27
2022-08-07T22:58:04.267Z,11.35
2022-08-07T23:00:36.491Z,10.85
2022-08-07T23:03:59.143Z,12.52
2022-08-07T23:07:01.514Z,14.90
2022-08-07T23:10:05.257Z,11.75
2022-08-07T23:13:03.231Z,12.48
2022-08-07T23:16:05.669Z,13.45
2022-08-07T23:19:11.289Z,18.05
2022-08-07T23:21:51.707Z,15.63
2022-08-07T23:24:45.763Z,13.88
2022-08-07T23:28:20.507Z,13.27
2022-08-07T23:31:06.445Z,12.52
2022-08-07T23:34:34.286Z,12.75
2022-08-07T23:37:19.573Z,12.65
2022-08-07T23:40:15.608Z,14.50
2022-08-07T23:43:00.747Z,13.48
2022-08-07T23:46:03.017Z,11.50
2022-08-07T23:48:56.188Z,11.32
2022-08-07T23:52:59.791Z,12.32
2022-08-07T23:54:46.464Z,12.02
